Frens, South Carolina
Current Conditions -  °F | °C
As of 11:35 AM on Monday 24 Nov 2014 (Local Time) from KSMS Reporting Station
Drizzle Drizzle  
Wind Chill: 72°   Ceiling: 1900
Heat Index: 72°   Visibility: 9mi
Dew Point: 68°   Wind: 9mph
Humidity: 88%   Direction: 210°SSW
Pressure: 29.85"   Gusts: NA
Location:  33.9242°N, 80.1986°W
Report Text: KSMS 241635Z AUTO 21008KT 9SM -DZ SCT013 BKN019 BKN024 22/20 A2985 RMK AO2
Loading
Personal Weather Stations






























Interactive Weather Map New forecast layout! Learn more

10-Day Weather Forecast

Advertisements
Track Severe Weather on mobile